sensor_id;sensor_type;location;lat;lon;timestamp;pressure;altitude;pressure_sealevel;temperature;humidity
21545;BME280;10933;50.754;11.508;2024-01-07T00:01:25;99075.13;;;2.11;100.00
21545;BME280;10933;50.754;11.508;2024-01-07T00:03:52;99086.47;;;2.51;100.00
21545;BME280;10933;50.754;11.508;2024-01-07T00:06:18;99088.00;;;2.14;100.00
21545;BME280;10933;50.754;11.508;2024-01-07T00:08:44;99087.81;;;2.09;100.00
21545;BME280;10933;50.754;11.508;2024-01-07T00:11:10;99086.63;;;1.92;100.00
21545;BME280;10933;50.754;11.508;2024-01-07T00:13:36;99078.44;;;1.93;100.00
21545;BME280;10933;50.754;11.508;2024-01-07T00:16:03;99082.69;;;2.14;100.00
21545;BME280;10933;50.754;11.508;2024-01-07T00:18:29;99090.66;;;2.21;100.00
21545;BME280;10933;50.754;11.508;2024-01-07T00:20:55;99085.00;;;1.84;100.00
21545;BME280;10933;50.754;11.508;2024-01-07T00:23:21;99094.41;;;1.73;100.00
21545;BME280;10933;50.754;11.508;2024-01-07T00:25:48;99097.25;;;1.72;100.00
21545;BME280;10933;50.754;11.508;2024-01-07T00:28:14;99103.22;;;1.81;100.00
21545;BME280;10933;50.754;11.508;2024-01-07T00:30:40;99096.84;;;1.82;100.00
21545;BME280;10933;50.754;11.508;2024-01-07T00:33:06;99105.03;;;1.73;100.00
21545;BME280;10933;50.754;11.508;2024-01-07T00:35:32;99105.66;;;1.82;100.00
21545;BME280;10933;50.754;11.508;2024-01-07T00:37:58;99106.06;;;1.79;100.00
21545;BME280;10933;50.754;11.508;2024-01-07T00:40:25;99098.47;;;1.63;100.00
21545;BME280;10933;50.754;11.508;2024-01-07T00:42:51;99104.22;;;1.60;100.00
21545;BME280;10933;50.754;11.508;2024-01-07T00:45:18;99110.34;;;1.73;100.00
21545;BME280;10933;50.754;11.508;2024-01-07T00:47:45;99110.38;;;1.67;100.00
21545;BME280;10933;50.754;11.508;2024-01-07T00:50:11;99109.56;;;1.66;100.00
21545;BME280;10933;50.754;11.508;2024-01-07T00:52:37;99107.50;;;1.68;100.00
21545;BME280;10933;50.754;11.508;2024-01-07T00:55:04;99112.81;;;1.68;100.00
21545;BME280;10933;50.754;11.508;2024-01-07T00:57:32;99119.94;;;1.48;100.00
21545;BME280;10933;50.754;11.508;2024-01-07T01:00:00;99121.00;;;1.67;100.00
21545;BME280;10933;50.754;11.508;2024-01-07T01:02:26;99123.81;;;1.39;100.00
21545;BME280;10933;50.754;11.508;2024-01-07T01:04:52;99125.41;;;1.27;100.00
21545;BME280;10933;50.754;11.508;2024-01-07T01:07:18;99123.78;;;1.26;100.00
21545;BME280;10933;50.754;11.508;2024-01-07T01:09:44;99114.41;;;1.30;100.00
21545;BME280;10933;50.754;11.508;2024-01-07T01:12:10;99114.19;;;1.18;100.00
21545;BME280;10933;50.754;11.508;2024-01-07T01:14:36;99087.22;;;1.14;100.00
21545;BME280;10933;50.754;11.508;2024-01-07T01:17:03;99083.28;;;1.10;100.00
21545;BME280;10933;50.754;11.508;2024-01-07T01:19:30;99072.47;;;1.05;100.00
21545;BME280;10933;50.754;11.508;2024-01-07T01:21:56;99103.31;;;1.06;100.00
21545;BME280;10933;50.754;11.508;2024-01-07T01:24:22;99089.84;;;1.08;100.00
21545;BME280;10933;50.754;11.508;2024-01-07T01:26:48;99093.75;;;1.18;100.00
21545;BME280;10933;50.754;11.508;2024-01-07T01:29:14;99091.31;;;1.37;100.00
21545;BME280;10933;50.754;11.508;2024-01-07T01:31:40;99095.19;;;1.14;100.00
21545;BME280;10933;50.754;11.508;2024-01-07T01:34:06;99094.19;;;1.29;100.00
21545;BME280;10933;50.754;11.508;2024-01-07T01:36:32;99095.59;;;1.31;100.00
21545;BME280;10933;50.754;11.508;2024-01-07T01:38:59;99104.81;;;1.48;100.00
21545;BME280;10933;50.754;11.508;2024-01-07T01:41:25;99100.75;;;1.53;100.00
21545;BME280;10933;50.754;11.508;2024-01-07T01:43:51;99110.28;;;1.14;100.00
21545;BME280;10933;50.754;11.508;2024-01-07T01:46:17;99116.25;;;1.36;100.00
21545;BME280;10933;50.754;11.508;2024-01-07T01:48:44;99115.63;;;1.21;100.00
21545;BME280;10933;50.754;11.508;2024-01-07T01:51:10;99114.72;;;1.00;100.00
21545;BME280;10933;50.754;11.508;2024-01-07T01:53:37;99118.13;;;1.42;100.00
21545;BME280;10933;50.754;11.508;2024-01-07T01:56:03;99121.75;;;1.14;100.00
21545;BME280;10933;50.754;11.508;2024-01-07T01:58:30;99119.69;;;1.16;100.00
21545;BME280;10933;50.754;11.508;2024-01-07T02:00:58;99131.19;;;1.30;100.00
21545;BME280;10933;50.754;11.508;2024-01-07T02:03:24;99127.06;;;1.14;100.00
21545;BME280;10933;50.754;11.508;2024-01-07T02:05:52;99135.69;;;1.63;100.00
21545;BME280;10933;50.754;11.508;2024-01-07T02:08:19;99144.69;;;1.42;100.00
21545;BME280;10933;50.754;11.508;2024-01-07T02:10:46;99152.72;;;0.94;100.00
21545;BME280;10933;50.754;11.508;2024-01-07T02:13:12;99156.53;;;1.46;100.00
21545;BME280;10933;50.754;11.508;2024-01-07T02:15:38;99163.81;;;1.04;100.00
21545;BME280;10933;50.754;11.508;2024-01-07T02:18:04;99163.50;;;1.47;100.00
21545;BME280;10933;50.754;11.508;2024-01-07T02:20:30;99166.06;;;1.14;100.00
21545;BME280;10933;50.754;11.508;2024-01-07T02:22:57;99177.03;;;0.98;100.00
21545;BME280;10933;50.754;11.508;2024-01-07T02:25:25;99175.69;;;1.22;100.00
21545;BME280;10933;50.754;11.508;2024-01-07T02:27:52;99176.56;;;0.81;100.00
21545;BME280;10933;50.754;11.508;2024-01-07T02:30:18;99175.19;;;0.92;100.00
21545;BME280;10933;50.754;11.508;2024-01-07T02:32:44;99184.25;;;0.69;100.00
21545;BME280;10933;50.754;11.508;2024-01-07T02:35:10;99182.44;;;0.70;100.00
21545;BME280;10933;50.754;11.508;2024-01-07T02:37:36;99181.06;;;0.80;100.00
21545;BME280;10933;50.754;11.508;2024-01-07T02:40:04;99171.41;;;1.21;100.00
21545;BME280;10933;50.754;11.508;2024-01-07T02:42:30;99182.44;;;0.70;100.00
21545;BME280;10933;50.754;11.508;2024-01-07T02:44:57;99185.06;;;1.04;100.00
21545;BME280;10933;50.754;11.508;2024-01-07T02:47:23;99186.63;;;0.92;100.00
21545;BME280;10933;50.754;11.508;2024-01-07T02:49:49;99189.44;;;0.84;100.00
21545;BME280;10933;50.754;11.508;2024-01-07T02:52:15;99197.88;;;0.59;100.00
21545;BME280;10933;50.754;11.508;2024-01-07T02:54:41;99191.81;;;0.66;100.00
21545;BME280;10933;50.754;11.508;2024-01-07T02:57:07;99197.47;;;0.63;100.00
21545;BME280;10933;50.754;11.508;2024-01-07T02:59:33;99193.84;;;0.64;100.00
21545;BME280;10933;50.754;11.508;2024-01-07T03:02:00;99196.97;;;0.46;100.00
21545;BME280;10933;50.754;11.508;2024-01-07T03:04:26;99200.31;;;0.54;100.00
21545;BME280;10933;50.754;11.508;2024-01-07T03:06:52;99190.31;;;0.56;100.00
21545;BME280;10933;50.754;11.508;2024-01-07T03:09:18;99190.59;;;0.68;100.00
21545;BME280;10933;50.754;11.508;2024-01-07T03:11:44;99187.25;;;0.53;100.00
21545;BME280;10933;50.754;11.508;2024-01-07T03:14:10;99191.56;;;0.61;100.00
21545;BME280;10933;50.754;11.508;2024-01-07T03:16:37;99198.69;;;0.53;100.00
21545;BME280;10933;50.754;11.508;2024-01-07T03:19:03;99194.53;;;0.44;100.00
21545;BME280;10933;50.754;11.508;2024-01-07T03:21:30;99199.28;;;0.55;100.00
21545;BME280;10933;50.754;11.508;2024-01-07T03:23:56;99199.84;;;0.44;100.00
21545;BME280;10933;50.754;11.508;2024-01-07T03:26:23;99199.97;;;0.36;100.00
21545;BME280;10933;50.754;11.508;2024-01-07T03:28:49;99208.03;;;0.49;100.00
21545;BME280;10933;50.754;11.508;2024-01-07T03:31:18;99214.59;;;0.53;100.00
21545;BME280;10933;50.754;11.508;2024-01-07T03:33:44;99212.88;;;0.39;100.00
21545;BME280;10933;50.754;11.508;2024-01-07T03:36:14;99222.56;;;0.53;100.00
21545;BME280;10933;50.754;11.508;2024-01-07T03:38:41;99223.50;;;0.39;100.00
21545;BME280;10933;50.754;11.508;2024-01-07T03:41:07;99242.44;;;0.36;100.00
21545;BME280;10933;50.754;11.508;2024-01-07T03:43:33;99244.47;;;0.34;100.00
21545;BME280;10933;50.754;11.508;2024-01-07T03:46:00;99250.75;;;0.54;100.00
21545;BME280;10933;50.754;11.508;2024-01-07T03:48:26;99252.72;;;0.46;100.00
21545;BME280;10933;50.754;11.508;2024-01-07T03:50:53;99259.63;;;0.75;100.00
21545;BME280;10933;50.754;11.508;2024-01-07T03:53:19;99262.50;;;0.45;100.00
21545;BME280;10933;50.754;11.508;2024-01-07T03:55:45;99266.03;;;0.52;100.00
21545;BME280;10933;50.754;11.508;2024-01-07T03:58:12;99273.09;;;0.67;100.00
21545;BME280;10933;50.754;11.508;2024-01-07T04:00:38;99283.97;;;0.50;100.00
21545;BME280;10933;50.754;11.508;2024-01-07T04:03:04;99278.13;;;0.62;100.00
21545;BME280;10933;50.754;11.508;2024-01-07T04:05:30;99283.53;;;0.47;100.00
21545;BME280;10933;50.754;11.508;2024-01-07T04:07:56;99279.69;;;0.49;100.00
21545;BME280;10933;50.754;11.508;2024-01-07T04:10:24;99284.53;;;0.18;100.00
21545;BME280;10933;50.754;11.508;2024-01-07T04:12:51;99287.19;;;0.18;100.00
21545;BME280;10933;50.754;11.508;2024-01-07T04:15:17;99294.03;;;0.34;100.00
21545;BME280;10933;50.754;11.508;2024-01-07T04:17:43;99302.22;;;-0.11;100.00
21545;BME280;10933;50.754;11.508;2024-01-07T04:20:13;99307.75;;;-0.06;100.00
21545;BME280;10933;50.754;11.508;2024-01-07T04:22:40;99312.81;;;-0.11;100.00
21545;BME280;10933;50.754;11.508;2024-01-07T04:25:06;99323.03;;;-0.08;100.00
21545;BME280;10933;50.754;11.508;2024-01-07T04:27:37;99324.56;;;0.02;100.00
21545;BME280;10933;50.754;11.508;2024-01-07T04:30:05;99332.00;;;-0.09;100.00
21545;BME280;10933;50.754;11.508;2024-01-07T04:32:32;99334.47;;;0.36;100.00
21545;BME280;10933;50.754;11.508;2024-01-07T04:34:58;99337.59;;;-0.18;100.00
21545;BME280;10933;50.754;11.508;2024-01-07T04:37:24;99339.81;;;-0.22;100.00
21545;BME280;10933;50.754;11.508;2024-01-07T04:39:50;99339.09;;;-0.31;100.00
21545;BME280;10933;50.754;11.508;2024-01-07T04:42:17;99346.19;;;-0.16;100.00
21545;BME280;10933;50.754;11.508;2024-01-07T04:44:44;99347.88;;;-0.30;100.00
21545;BME280;10933;50.754;11.508;2024-01-07T04:47:33;99353.16;;;-0.30;100.00
21545;BME280;10933;50.754;11.508;2024-01-07T04:50:03;99357.31;;;-0.06;100.00
21545;BME280;10933;50.754;11.508;2024-01-07T04:52:30;99357.84;;;-0.32;100.00
21545;BME280;10933;50.754;11.508;2024-01-07T04:54:56;99372.63;;;-0.23;100.00
21545;BME280;10933;50.754;11.508;2024-01-07T04:57:23;99371.34;;;-0.27;100.00
21545;BME280;10933;50.754;11.508;2024-01-07T04:59:51;99377.13;;;-0.23;100.00
21545;BME280;10933;50.754;11.508;2024-01-07T05:02:18;99378.50;;;-0.42;100.00
21545;BME280;10933;50.754;11.508;2024-01-07T05:04:46;99389.25;;;-0.29;100.00
21545;BME280;10933;50.754;11.508;2024-01-07T05:07:12;99388.94;;;-0.05;100.00
21545;BME280;10933;50.754;11.508;2024-01-07T05:09:40;99403.34;;;-0.43;100.00
21545;BME280;10933;50.754;11.508;2024-01-07T05:12:06;99409.00;;;-0.17;100.00
21545;BME280;10933;50.754;11.508;2024-01-07T05:14:32;99406.34;;;-0.32;100.00
21545;BME280;10933;50.754;11.508;2024-01-07T05:16:58;99423.84;;;-0.37;100.00
21545;BME280;10933;50.754;11.508;2024-01-07T05:19:24;99428.72;;;-0.05;100.00
21545;BME280;10933;50.754;11.508;2024-01-07T05:21:50;99429.81;;;-0.14;100.00
21545;BME280;10933;50.754;11.508;2024-01-07T05:24:17;99431.75;;;0.28;100.00
21545;BME280;10933;50.754;11.508;2024-01-07T05:26:44;99438.75;;;0.15;100.00
21545;BME280;10933;50.754;11.508;2024-01-07T05:29:10;99455.97;;;-0.40;100.00
21545;BME280;10933;50.754;11.508;2024-01-07T05:31:38;99451.38;;;-0.02;100.00
21545;BME280;10933;50.754;11.508;2024-01-07T05:34:04;99458.72;;;-0.19;100.00
21545;BME280;10933;50.754;11.508;2024-01-07T05:36:31;99460.28;;;-0.39;100.00
21545;BME280;10933;50.754;11.508;2024-01-07T05:38:58;99466.41;;;-0.24;100.00
21545;BME280;10933;50.754;11.508;2024-01-07T05:41:25;99474.06;;;-0.58;100.00
21545;BME280;10933;50.754;11.508;2024-01-07T05:43:51;99481.72;;;-0.64;100.00
21545;BME280;10933;50.754;11.508;2024-01-07T05:46:17;99478.22;;;-0.12;100.00
21545;BME280;10933;50.754;11.508;2024-01-07T05:48:45;99492.75;;;-0.37;100.00
21545;BME280;10933;50.754;11.508;2024-01-07T05:51:12;99496.72;;;-0.41;100.00
21545;BME280;10933;50.754;11.508;2024-01-07T05:53:39;99501.41;;;-0.14;100.00
21545;BME280;10933;50.754;11.508;2024-01-07T05:56:05;99508.91;;;-0.32;100.00
21545;BME280;10933;50.754;11.508;2024-01-07T05:58:31;99510.22;;;-0.66;100.00
21545;BME280;10933;50.754;11.508;2024-01-07T06:00:57;99508.97;;;-0.40;100.00
21545;BME280;10933;50.754;11.508;2024-01-07T06:03:24;99520.31;;;-0.46;100.00
21545;BME280;10933;50.754;11.508;2024-01-07T06:05:50;99520.03;;;-0.51;100.00
21545;BME280;10933;50.754;11.508;2024-01-07T06:08:16;99523.72;;;-0.38;100.00
21545;BME280;10933;50.754;11.508;2024-01-07T06:10:43;99519.88;;;-0.50;100.00
21545;BME280;10933;50.754;11.508;2024-01-07T06:13:09;99531.56;;;-0.82;100.00
21545;BME280;10933;50.754;11.508;2024-01-07T06:15:35;99530.47;;;-0.87;100.00
21545;BME280;10933;50.754;11.508;2024-01-07T06:18:01;99533.78;;;-0.71;100.00
21545;BME280;10933;50.754;11.508;2024-01-07T06:20:28;99539.69;;;-0.83;100.00
21545;BME280;10933;50.754;11.508;2024-01-07T06:22:54;99545.44;;;-0.80;100.00
21545;BME280;10933;50.754;11.508;2024-01-07T06:25:20;99541.34;;;-0.82;100.00
21545;BME280;10933;50.754;11.508;2024-01-07T06:27:46;99544.97;;;-0.83;100.00
21545;BME280;10933;50.754;11.508;2024-01-07T06:30:13;99545.13;;;0.20;100.00
21545;BME280;10933;50.754;11.508;2024-01-07T06:32:39;99571.56;;;-0.77;100.00
21545;BME280;10933;50.754;11.508;2024-01-07T06:35:06;99574.38;;;-0.55;100.00
21545;BME280;10933;50.754;11.508;2024-01-07T06:37:32;99577.16;;;-0.95;100.00
21545;BME280;10933;50.754;11.508;2024-01-07T06:39:58;99582.56;;;-0.65;100.00
21545;BME280;10933;50.754;11.508;2024-01-07T06:42:24;99592.19;;;-0.87;100.00
21545;BME280;10933;50.754;11.508;2024-01-07T06:44:50;99595.25;;;-0.98;100.00
21545;BME280;10933;50.754;11.508;2024-01-07T06:47:16;99605.91;;;-0.83;100.00
21545;BME280;10933;50.754;11.508;2024-01-07T06:49:43;99604.06;;;-0.83;100.00
21545;BME280;10933;50.754;11.508;2024-01-07T06:52:09;99607.06;;;-0.86;100.00
21545;BME280;10933;50.754;11.508;2024-01-07T06:54:35;99608.91;;;-0.86;100.00
21545;BME280;10933;50.754;11.508;2024-01-07T06:57:02;99617.25;;;-0.98;100.00
21545;BME280;10933;50.754;11.508;2024-01-07T06:59:28;99630.31;;;-0.96;100.00
21545;BME280;10933;50.754;11.508;2024-01-07T07:01:54;99637.72;;;-0.92;100.00
21545;BME280;10933;50.754;11.508;2024-01-07T07:04:22;99639.50;;;-0.84;100.00
21545;BME280;10933;50.754;11.508;2024-01-07T07:06:48;99637.63;;;-0.75;100.00
21545;BME280;10933;50.754;11.508;2024-01-07T07:09:14;99645.06;;;-1.02;100.00
21545;BME280;10933;50.754;11.508;2024-01-07T07:11:41;99653.84;;;-1.01;100.00
21545;BME280;10933;50.754;11.508;2024-01-07T07:14:07;99662.44;;;-0.99;100.00
21545;BME280;10933;50.754;11.508;2024-01-07T07:16:33;99659.94;;;-0.70;100.00
21545;BME280;10933;50.754;11.508;2024-01-07T07:18:59;99673.34;;;-1.02;100.00
21545;BME280;10933;50.754;11.508;2024-01-07T07:21:25;99677.06;;;-1.11;100.00
21545;BME280;10933;50.754;11.508;2024-01-07T07:23:53;99685.16;;;-1.13;100.00
21545;BME280;10933;50.754;11.508;2024-01-07T07:26:19;99683.63;;;-0.99;100.00
21545;BME280;10933;50.754;11.508;2024-01-07T07:28:46;99686.66;;;-1.10;100.00
21545;BME280;10933;50.754;11.508;2024-01-07T07:31:12;99702.81;;;-1.05;100.00
21545;BME280;10933;50.754;11.508;2024-01-07T07:33:41;99710.97;;;-0.53;100.00
21545;BME280;10933;50.754;11.508;2024-01-07T07:36:08;99721.34;;;-1.05;100.00
21545;BME280;10933;50.754;11.508;2024-01-07T07:38:34;99719.22;;;-0.71;100.00
21545;BME280;10933;50.754;11.508;2024-01-07T07:41:00;99736.13;;;-0.80;100.00
21545;BME280;10933;50.754;11.508;2024-01-07T07:43:26;99746.47;;;-0.93;100.00
21545;BME280;10933;50.754;11.508;2024-01-07T07:45:53;99756.47;;;-1.20;100.00
21545;BME280;10933;50.754;11.508;2024-01-07T07:48:19;99772.56;;;-0.82;100.00
21545;BME280;10933;50.754;11.508;2024-01-07T07:50:45;99768.63;;;-0.86;100.00
21545;BME280;10933;50.754;11.508;2024-01-07T07:53:11;99784.59;;;-1.19;100.00
21545;BME280;10933;50.754;11.508;2024-01-07T07:55:37;99787.91;;;-1.16;100.00
21545;BME280;10933;50.754;11.508;2024-01-07T07:58:04;99792.84;;;-1.05;100.00
21545;BME280;10933;50.754;11.508;2024-01-07T08:00:30;99805.13;;;-1.29;100.00
21545;BME280;10933;50.754;11.508;2024-01-07T08:02:56;99809.81;;;-1.39;100.00
21545;BME280;10933;50.754;11.508;2024-01-07T08:05:22;99814.25;;;-1.23;100.00
21545;BME280;10933;50.754;11.508;2024-01-07T08:07:48;99814.06;;;-1.30;100.00
21545;BME280;10933;50.754;11.508;2024-01-07T08:10:14;99822.16;;;-1.15;100.00
21545;BME280;10933;50.754;11.508;2024-01-07T08:12:41;99834.94;;;-1.27;100.00
21545;BME280;10933;50.754;11.508;2024-01-07T08:15:07;99825.16;;;-0.63;100.00
21545;BME280;10933;50.754;11.508;2024-01-07T08:17:34;99834.84;;;-0.94;100.00
21545;BME280;10933;50.754;11.508;2024-01-07T08:20:00;99840.19;;;-1.10;100.00
21545;BME280;10933;50.754;11.508;2024-01-07T08:22:27;99847.66;;;-1.14;100.00
21545;BME280;10933;50.754;11.508;2024-01-07T08:24:53;99859.72;;;-1.11;100.00
21545;BME280;10933;50.754;11.508;2024-01-07T08:27:20;99854.72;;;-0.98;100.00
21545;BME280;10933;50.754;11.508;2024-01-07T08:29:46;99861.66;;;-0.97;100.00
21545;BME280;10933;50.754;11.508;2024-01-07T08:32:12;99851.63;;;-1.26;100.00
21545;BME280;10933;50.754;11.508;2024-01-07T08:34:39;99863.66;;;-0.99;100.00
21545;BME280;10933;50.754;11.508;2024-01-07T08:37:06;99869.91;;;-0.92;100.00
21545;BME280;10933;50.754;11.508;2024-01-07T08:39:33;99874.25;;;-0.99;100.00
21545;BME280;10933;50.754;11.508;2024-01-07T08:41:59;99881.50;;;-0.93;100.00
21545;BME280;10933;50.754;11.508;2024-01-07T08:44:25;99888.19;;;-1.13;100.00
21545;BME280;10933;50.754;11.508;2024-01-07T08:46:51;99883.56;;;-1.36;100.00
21545;BME280;10933;50.754;11.508;2024-01-07T08:49:17;99892.78;;;-1.07;100.00
21545;BME280;10933;50.754;11.508;2024-01-07T08:51:43;99890.47;;;-1.19;100.00
21545;BME280;10933;50.754;11.508;2024-01-07T08:54:10;99896.94;;;-1.21;100.00
21545;BME280;10933;50.754;11.508;2024-01-07T08:56:36;99906.69;;;-0.97;100.00
21545;BME280;10933;50.754;11.508;2024-01-07T08:59:02;99906.66;;;-0.89;100.00
21545;BME280;10933;50.754;11.508;2024-01-07T09:01:30;99908.69;;;-1.24;100.00
21545;BME280;10933;50.754;11.508;2024-01-07T09:03:56;99912.16;;;-1.31;100.00
21545;BME280;10933;50.754;11.508;2024-01-07T09:06:22;99913.66;;;-1.29;100.00
21545;BME280;10933;50.754;11.508;2024-01-07T09:08:48;99914.47;;;-1.28;100.00
21545;BME280;10933;50.754;11.508;2024-01-07T09:11:14;99916.31;;;-1.21;100.00
21545;BME280;10933;50.754;11.508;2024-01-07T09:13:42;99923.41;;;-1.21;100.00
21545;BME280;10933;50.754;11.508;2024-01-07T09:16:08;99924.75;;;-1.01;100.00
21545;BME280;10933;50.754;11.508;2024-01-07T09:18:37;99933.84;;;-1.11;100.00
21545;BME280;10933;50.754;11.508;2024-01-07T09:21:03;99937.47;;;-1.04;100.00
21545;BME280;10933;50.754;11.508;2024-01-07T09:23:29;99938.13;;;-1.10;100.00
21545;BME280;10933;50.754;11.508;2024-01-07T09:25:56;99933.66;;;-1.18;100.00
21545;BME280;10933;50.754;11.508;2024-01-07T09:28:22;99941.28;;;-1.23;100.00
21545;BME280;10933;50.754;11.508;2024-01-07T09:30:48;99944.25;;;-1.34;100.00
21545;BME280;10933;50.754;11.508;2024-01-07T09:33:14;99951.19;;;-1.33;100.00
21545;BME280;10933;50.754;11.508;2024-01-07T09:35:41;99956.66;;;-1.19;100.00
21545;BME280;10933;50.754;11.508;2024-01-07T09:38:07;99955.66;;;-1.17;100.00
21545;BME280;10933;50.754;11.508;2024-01-07T09:40:33;99955.31;;;-0.90;100.00
21545;BME280;10933;50.754;11.508;2024-01-07T09:42:59;99955.69;;;-1.01;100.00
21545;BME280;10933;50.754;11.508;2024-01-07T09:45:25;99949.38;;;-1.08;100.00
21545;BME280;10933;50.754;11.508;2024-01-07T09:47:52;99958.66;;;-1.21;100.00
21545;BME280;10933;50.754;11.508;2024-01-07T09:50:18;99963.63;;;-1.09;100.00
21545;BME280;10933;50.754;11.508;2024-01-07T09:52:44;99961.94;;;-1.35;100.00
21545;BME280;10933;50.754;11.508;2024-01-07T09:55:18;99962.28;;;-1.30;100.00
21545;BME280;10933;50.754;11.508;2024-01-07T09:57:48;99959.78;;;-1.31;100.00
21545;BME280;10933;50.754;11.508;2024-01-07T10:00:14;99959.44;;;-1.44;100.00
21545;BME280;10933;50.754;11.508;2024-01-07T10:02:40;99963.25;;;-1.55;100.00
21545;BME280;10933;50.754;11.508;2024-01-07T10:05:07;99972.19;;;-1.40;100.00
21545;BME280;10933;50.754;11.508;2024-01-07T10:07:33;99982.09;;;-1.58;100.00
21545;BME280;10933;50.754;11.508;2024-01-07T10:10:13;99977.19;;;-1.21;100.00
21545;BME280;10933;50.754;11.508;2024-01-07T10:12:40;99982.59;;;-1.63;100.00
21545;BME280;10933;50.754;11.508;2024-01-07T10:15:06;99980.16;;;-0.83;100.00
21545;BME280;10933;50.754;11.508;2024-01-07T10:17:33;99980.81;;;-0.89;100.00
21545;BME280;10933;50.754;11.508;2024-01-07T10:19:59;99985.13;;;-0.88;100.00
21545;BME280;10933;50.754;11.508;2024-01-07T10:22:25;99983.94;;;-0.61;100.00
21545;BME280;10933;50.754;11.508;2024-01-07T10:24:52;99995.03;;;-0.90;100.00
21545;BME280;10933;50.754;11.508;2024-01-07T10:27:18;99994.38;;;-0.92;100.00
21545;BME280;10933;50.754;11.508;2024-01-07T10:29:48;100002.50;;;-1.26;100.00
21545;BME280;10933;50.754;11.508;2024-01-07T10:32:19;100001.50;;;-1.17;100.00
21545;BME280;10933;50.754;11.508;2024-01-07T10:34:46;100004.66;;;-0.97;100.00
21545;BME280;10933;50.754;11.508;2024-01-07T10:37:15;100007.63;;;-0.60;100.00
21545;BME280;10933;50.754;11.508;2024-01-07T10:39:42;100021.16;;;-1.36;100.00
21545;BME280;10933;50.754;11.508;2024-01-07T10:42:08;100025.13;;;-1.32;100.00
21545;BME280;10933;50.754;11.508;2024-01-07T10:44:35;100025.34;;;-1.01;100.00
21545;BME280;10933;50.754;11.508;2024-01-07T10:47:06;100029.44;;;-1.39;100.00
21545;BME280;10933;50.754;11.508;2024-01-07T10:49:32;100036.41;;;-1.05;100.00
21545;BME280;10933;50.754;11.508;2024-01-07T10:52:06;100043.59;;;-1.64;100.00
21545;BME280;10933;50.754;11.508;2024-01-07T10:54:34;100045.66;;;-1.34;100.00
21545;BME280;10933;50.754;11.508;2024-01-07T10:59:32;100042.56;;;-1.13;100.00
21545;BME280;10933;50.754;11.508;2024-01-07T11:01:59;100041.06;;;-1.07;100.00
21545;BME280;10933;50.754;11.508;2024-01-07T11:07:43;100057.31;;;-1.95;100.00
21545;BME280;10933;50.754;11.508;2024-01-07T11:10:18;100065.16;;;-1.35;100.00
21545;BME280;10933;50.754;11.508;2024-01-07T11:12:54;100066.41;;;-1.63;100.00
21545;BME280;10933;50.754;11.508;2024-01-07T11:15:59;100072.97;;;-1.75;100.00
21545;BME280;10933;50.754;11.508;2024-01-07T11:18:26;100080.09;;;-1.68;100.00
21545;BME280;10933;50.754;11.508;2024-01-07T11:20:59;100076.28;;;-1.73;100.00
21545;BME280;10933;50.754;11.508;2024-01-07T11:23:33;100092.25;;;-1.41;100.00
21545;BME280;10933;50.754;11.508;2024-01-07T11:26:02;100091.66;;;-2.03;100.00
21545;BME280;10933;50.754;11.508;2024-01-07T11:28:58;100100.09;;;-1.65;100.00
21545;BME280;10933;50.754;11.508;2024-01-07T11:31:45;100109.91;;;-1.58;100.00
21545;BME280;10933;50.754;11.508;2024-01-07T11:34:38;100116.63;;;-1.71;100.00
21545;BME280;10933;50.754;11.508;2024-01-07T11:37:09;100116.81;;;-1.91;100.00
21545;BME280;10933;50.754;11.508;2024-01-07T11:39:35;100119.53;;;-2.09;100.00
21545;BME280;10933;50.754;11.508;2024-01-07T11:42:04;100116.00;;;-2.17;100.00
21545;BME280;10933;50.754;11.508;2024-01-07T11:44:32;100123.81;;;-2.16;100.00
21545;BME280;10933;50.754;11.508;2024-01-07T11:46:59;100126.56;;;-1.91;100.00
21545;BME280;10933;50.754;11.508;2024-01-07T11:49:25;100122.41;;;-2.02;100.00
21545;BME280;10933;50.754;11.508;2024-01-07T11:51:51;100137.72;;;-1.80;100.00
21545;BME280;10933;50.754;11.508;2024-01-07T11:54:19;100135.22;;;-2.15;100.00
21545;BME280;10933;50.754;11.508;2024-01-07T11:56:45;100137.72;;;-2.31;100.00
21545;BME280;10933;50.754;11.508;2024-01-07T11:59:12;100144.72;;;-1.70;100.00
21545;BME280;10933;50.754;11.508;2024-01-07T12:01:38;100140.38;;;-1.80;100.00
21545;BME280;10933;50.754;11.508;2024-01-07T12:04:04;100151.59;;;-2.12;100.00
21545;BME280;10933;50.754;11.508;2024-01-07T12:06:30;100157.94;;;-1.70;100.00
21545;BME280;10933;50.754;11.508;2024-01-07T12:08:57;100153.06;;;-2.09;100.00
21545;BME280;10933;50.754;11.508;2024-01-07T12:11:23;100160.19;;;-1.84;100.00
21545;BME280;10933;50.754;11.508;2024-01-07T12:13:49;100161.53;;;-2.05;100.00
21545;BME280;10933;50.754;11.508;2024-01-07T12:16:16;100158.94;;;-1.97;100.00
21545;BME280;10933;50.754;11.508;2024-01-07T12:18:42;100161.78;;;-1.65;100.00
21545;BME280;10933;50.754;11.508;2024-01-07T12:21:08;100163.72;;;-1.75;100.00
21545;BME280;10933;50.754;11.508;2024-01-07T12:23:35;100170.41;;;-1.89;100.00
21545;BME280;10933;50.754;11.508;2024-01-07T12:26:08;100176.31;;;-1.35;100.00
21545;BME280;10933;50.754;11.508;2024-01-07T12:28:35;100173.72;;;-1.87;100.00
21545;BME280;10933;50.754;11.508;2024-01-07T12:31:03;100183.47;;;-1.61;100.00
21545;BME280;10933;50.754;11.508;2024-01-07T12:33:30;100183.06;;;-1.74;100.00
21545;BME280;10933;50.754;11.508;2024-01-07T12:35:57;100192.69;;;-1.91;100.00
21545;BME280;10933;50.754;11.508;2024-01-07T12:38:27;100188.78;;;-1.79;100.00
21545;BME280;10933;50.754;11.508;2024-01-07T12:40:54;100193.41;;;-1.55;100.00
21545;BME280;10933;50.754;11.508;2024-01-07T12:43:20;100203.41;;;-1.93;100.00
21545;BME280;10933;50.754;11.508;2024-01-07T12:45:48;100199.53;;;-1.81;100.00
21545;BME280;10933;50.754;11.508;2024-01-07T12:48:15;100203.97;;;-1.89;100.00